Time;durP1;ratioP1;P1;durP2;ratioP2;P2;SDS_P1;SDS_P2;PMS_P1;PMS_P2;Temp;Humidity;BMP_temperature;BMP_pressure;BME280_temperature;BME280_humidity;BME280_pressure;Samples;Min_cycle;Max_cycle;Signal;HPM_P1;HPM_P2
2022/09/18 00:01:47;;;;;;;12.23;1.80;;;9.50;99.90;;;;;;4949601;28;186109;-72
2022/09/18 00:04:13;;;;;;;22.27;2.13;;;9.50;99.90;;;;;;4982369;28;20058;-73
2022/09/18 00:06:41;;;;;;;13.15;1.70;;;9.50;99.90;;;;;;4944897;28;212571;-73
2022/09/18 00:09:11;;;;;;;15.45;1.90;;;9.50;99.90;;;;;;4973784;28;20050;-72
2022/09/18 00:11:42;;;;;;;17.83;2.00;;;9.40;99.90;;;;;;4949625;28;206240;-72
2022/09/18 00:14:11;;;;;;;18.67;2.38;;;9.40;99.90;;;;;;4987799;28;20042;-72
2022/09/18 00:16:37;;;;;;;19.48;2.20;;;9.40;99.90;;;;;;4951442;28;206070;-72
2022/09/18 00:19:04;;;;;;;16.63;1.95;;;9.30;99.90;;;;;;4987786;28;20062;-72
2022/09/18 00:21:31;;;;;;;20.50;2.53;;;9.30;99.90;;;;;;4941237;28;176628;-72
2022/09/18 00:24:00;;;;;;;14.60;2.00;;;9.30;99.90;;;;;;4983927;28;20054;-72
2022/09/18 00:26:27;;;;;;;15.02;2.20;;;9.30;99.90;;;;;;4958951;28;210350;-71
2022/09/18 00:28:54;;;;;;;16.15;2.10;;;9.40;99.90;;;;;;4984941;28;20122;-72
2022/09/18 00:31:28;;;;;;;15.57;1.95;;;9.40;99.90;;;;;;4945856;28;234730;-72
2022/09/18 00:33:56;;;;;;;13.50;1.98;;;9.40;99.90;;;;;;4982958;28;20074;-72
2022/09/18 00:36:22;;;;;;;16.88;1.80;;;9.40;99.90;;;;;;4940456;28;205195;-73
2022/09/18 00:38:49;;;;;;;13.27;1.73;;;9.50;99.90;;;;;;4979643;28;20066;-72
2022/09/18 00:41:24;;;;;;;23.25;2.00;;;9.50;99.90;;;;;;4934842;28;204695;-71
2022/09/18 00:44:00;;;;;;;14.98;2.15;;;9.60;99.90;;;;;;4978470;28;20491;-71
2022/09/18 00:46:31;;;;;;;17.35;1.70;;;9.60;99.90;;;;;;4930708;28;206720;-72
2022/09/18 00:49:14;;;;;;;13.50;1.60;;;9.50;99.90;;;;;;4987276;28;20050;-72
2022/09/18 00:51:41;;;;;;;14.70;1.85;;;9.50;99.90;;;;;;4948946;28;207523;-72
2022/09/18 00:54:13;;;;;;;21.17;2.25;;;9.50;99.90;;;;;;4985392;28;20046;-72
2022/09/18 00:56:39;;;;;;;16.48;2.03;;;9.50;99.90;;;;;;4946561;28;205850;-72
2022/09/18 00:59:07;;;;;;;17.30;2.20;;;9.50;99.90;;;;;;4993666;28;20045;-73
2022/09/18 01:01:33;;;;;;;18.13;2.63;;;9.50;99.90;;;;;;4922650;28;213788;-73
2022/09/18 01:03:59;;;;;;;18.40;2.35;;;9.50;99.90;;;;;;4980009;28;20496;-73
2022/09/18 01:06:54;;;;;;;20.55;2.50;;;9.50;99.90;;;;;;4938190;28;208463;-73
2022/09/18 01:09:47;;;;;;;21.88;2.53;;;9.50;99.90;;;;;;4981625;28;20054;-74
2022/09/18 01:12:41;;;;;;;20.40;2.40;;;9.50;99.90;;;;;;4949056;28;212372;-73
2022/09/18 01:15:24;;;;;;;15.43;2.23;;;9.50;99.90;;;;;;4943926;28;209940;-74
2022/09/18 01:18:17;;;;;;;18.80;2.08;;;9.50;99.90;;;;;;4993311;28;20049;-74
2022/09/18 01:21:07;;;;;;;18.80;1.95;;;9.60;99.90;;;;;;4938121;28;205948;-74
2022/09/18 01:24:07;;;;;;;15.45;2.08;;;9.60;99.90;;;;;;4989204;28;20065;-75
2022/09/18 01:26:47;;;;;;;16.52;1.90;;;9.60;99.90;;;;;;4944785;28;209446;-74
2022/09/18 01:29:41;;;;;;;15.40;1.83;;;9.60;99.90;;;;;;4987848;28;20042;-74
2022/09/18 01:32:16;;;;;;;19.45;2.03;;;9.70;99.90;;;;;;4947713;28;208361;-74
2022/09/18 01:35:13;;;;;;;19.25;2.33;;;9.70;99.90;;;;;;4984581;28;20057;-74
2022/09/18 01:37:52;;;;;;;18.55;2.20;;;9.70;99.90;;;;;;4933799;28;205652;-75
2022/09/18 01:40:25;;;;;;;12.13;1.85;;;9.70;99.90;;;;;;4949018;28;224563;-74
2022/09/18 01:42:55;;;;;;;19.65;2.15;;;9.70;99.90;;;;;;4983714;28;20061;-74
2022/09/18 01:45:26;;;;;;;16.17;1.75;;;9.80;99.90;;;;;;4947927;28;209410;-74
2022/09/18 01:48:00;;;;;;;23.73;2.00;;;9.80;99.90;;;;;;4996513;28;20042;-74
2022/09/18 01:50:30;;;;;;;14.32;1.98;;;9.80;99.90;;;;;;4942537;28;208836;-73
2022/09/18 01:53:17;;;;;;;14.20;1.73;;;9.80;99.90;;;;;;4991484;28;20057;-74
2022/09/18 01:55:50;;;;;;;14.90;2.22;;;9.80;99.90;;;;;;4936235;28;209360;-74
2022/09/18 01:58:19;;;;;;;18.63;2.17;;;9.80;99.90;;;;;;4982589;28;20511;-73
2022/09/18 02:00:52;;;;;;;20.80;2.10;;;9.70;99.90;;;;;;4945665;28;191637;-73
2022/09/18 02:03:34;;;;;;;12.70;1.67;;;9.70;99.90;;;;;;4979877;28;20063;-74
2022/09/18 02:06:11;;;;;;;17.52;2.10;;;9.70;99.90;;;;;;4939064;28;205750;-74
2022/09/18 02:08:44;;;;;;;15.23;1.80;;;9.70;99.90;;;;;;4977460;28;20054;-74
2022/09/18 02:11:12;;;;;;;16.33;1.80;;;9.70;99.90;;;;;;4945480;28;218407;-74
2022/09/18 02:13:47;;;;;;;20.23;1.90;;;9.70;99.90;;;;;;4991776;28;20495;-74
2022/09/18 02:16:25;;;;;;;13.77;1.73;;;9.80;99.90;;;;;;4940865;28;205635;-74
2022/09/18 02:18:55;;;;;;;19.00;2.17;;;9.80;99.90;;;;;;4981170;28;20077;-74
2022/09/18 02:21:27;;;;;;;13.17;2.00;;;9.80;99.90;;;;;;4943442;28;206898;-73
2022/09/18 02:24:01;;;;;;;14.32;1.90;;;9.80;99.90;;;;;;4985564;28;20700;-73
2022/09/18 02:26:28;;;;;;;16.60;1.50;;;9.80;99.90;;;;;;4928605;28;205924;-74
2022/09/18 02:28:56;;;;;;;14.57;1.90;;;9.80;99.90;;;;;;4980168;28;20058;-73
2022/09/18 02:31:22;;;;;;;15.63;2.22;;;9.80;99.90;;;;;;4952325;28;93185;-73
2022/09/18 02:33:48;;;;;;;12.10;1.75;;;9.80;99.90;;;;;;4987506;28;20050;-74
2022/09/18 02:36:23;;;;;;;14.25;1.90;;;9.80;99.90;;;;;;4931217;28;206923;-74
2022/09/18 02:39:09;;;;;;;17.15;2.30;;;9.90;99.90;;;;;;4982661;28;20050;-74
2022/09/18 02:42:19;;;;;;;14.13;1.90;;;9.90;99.90;;;;;;4948174;28;207110;-74
2022/09/18 02:44:52;;;;;;;15.75;1.90;;;9.90;99.90;;;;;;4987758;28;20972;-73
2022/09/18 02:47:36;;;;;;;11.30;1.52;;;9.90;99.90;;;;;;4907405;28;209357;-73
2022/09/18 02:50:22;;;;;;;15.40;1.70;;;9.90;99.90;;;;;;4929855;28;208498;-73
2022/09/18 02:52:56;;;;;;;13.70;1.73;;;10.00;99.90;;;;;;4963493;28;20059;-73
2022/09/18 02:55:45;;;;;;;14.15;1.80;;;10.00;99.90;;;;;;4926701;28;211552;-73
2022/09/18 02:58:20;;;;;;;13.95;1.65;;;10.00;99.90;;;;;;4993022;28;20499;-73
2022/09/18 03:00:48;;;;;;;13.88;1.70;;;10.00;99.90;;;;;;4933290;28;210193;-73
2022/09/18 03:03:16;;;;;;;13.02;1.85;;;10.00;99.90;;;;;;4980517;28;20050;-73
2022/09/18 03:05:43;;;;;;;14.10;1.70;;;10.10;99.90;;;;;;4944789;28;204982;-73
2022/09/18 03:08:11;;;;;;;18.38;1.92;;;10.10;99.90;;;;;;4994196;28;20058;-74
2022/09/18 03:10:37;;;;;;;15.27;1.60;;;10.10;99.90;;;;;;4944060;28;205913;-75
2022/09/18 03:13:03;;;;;;;14.25;1.67;;;10.20;99.90;;;;;;5001179;28;20042;-74
2022/09/18 03:15:29;;;;;;;15.50;1.75;;;10.20;99.90;;;;;;4942889;28;207160;-74
2022/09/18 03:17:55;;;;;;;13.07;1.63;;;10.30;99.90;;;;;;4985842;28;20073;-75
2022/09/18 03:20:21;;;;;;;15.15;2.05;;;10.30;99.90;;;;;;4947132;28;210561;-75
2022/09/18 03:22:48;;;;;;;15.50;1.73;;;10.30;99.90;;;;;;4968550;28;20531;-74
2022/09/18 03:25:15;;;;;;;14.02;1.95;;;10.30;99.90;;;;;;4944782;28;213575;-74
2022/09/18 03:27:41;;;;;;;13.52;1.88;;;10.30;99.90;;;;;;4985988;28;20073;-73
2022/09/18 03:30:08;;;;;;;18.20;2.00;;;10.30;99.90;;;;;;4939914;28;212216;-74
2022/09/18 03:32:34;;;;;;;16.85;1.90;;;10.30;99.90;;;;;;4968403;28;20401;-74
2022/09/18 03:35:00;;;;;;;13.40;1.60;;;10.30;99.90;;;;;;4933051;28;209433;-74
2022/09/18 03:37:26;;;;;;;15.07;1.90;;;10.30;99.90;;;;;;4972222;28;20112;-74
2022/09/18 03:39:52;;;;;;;15.88;2.00;;;10.30;99.90;;;;;;4988409;28;20062;-74
2022/09/18 03:42:19;;;;;;;13.70;2.05;;;10.30;99.90;;;;;;4945750;28;171010;-74
2022/09/18 03:44:45;;;;;;;13.02;1.50;;;10.30;99.90;;;;;;4985042;28;20058;-74
2022/09/18 03:47:11;;;;;;;11.77;1.83;;;10.30;99.90;;;;;;4946056;28;206949;-73
2022/09/18 03:49:37;;;;;;;11.15;1.38;;;10.20;99.90;;;;;;4968328;28;20057;-73
2022/09/18 03:52:03;;;;;;;11.98;1.80;;;10.20;99.90;;;;;;4927884;28;208560;-73
2022/09/18 03:54:31;;;;;;;16.95;1.65;;;10.20;99.90;;;;;;4985741;28;20054;-73
2022/09/18 03:56:57;;;;;;;17.15;1.90;;;10.20;99.90;;;;;;4925241;28;205627;-73
2022/09/18 03:59:23;;;;;;;12.65;1.70;;;10.20;99.90;;;;;;4986709;28;20704;-73
2022/09/18 04:01:49;;;;;;;14.93;1.70;;;10.20;99.90;;;;;;4936503;28;218028;-73
2022/09/18 04:04:15;;;;;;;15.00;1.50;;;10.20;99.90;;;;;;4985163;28;20038;-73
2022/09/18 04:06:41;;;;;;;10.88;1.40;;;10.10;99.90;;;;;;4952436;28;184492;-73
2022/09/18 04:09:08;;;;;;;13.50;1.70;;;10.10;99.90;;;;;;4985714;28;20059;-73
2022/09/18 04:11:34;;;;;;;15.20;2.17;;;10.10;99.90;;;;;;4953424;28;210080;-73
2022/09/18 04:14:01;;;;;;;12.77;1.80;;;10.10;99.90;;;;;;4984476;28;20049;-74
2022/09/18 04:16:27;;;;;;;12.00;1.33;;;10.10;99.90;;;;;;4943938;28;209081;-73
2022/09/18 04:18:53;;;;;;;14.60;1.67;;;10.10;99.90;;;;;;4989187;28;20617;-72
2022/09/18 04:21:19;;;;;;;13.40;1.50;;;10.10;99.90;;;;;;4935637;28;215658;-73
2022/09/18 04:23:45;;;;;;;15.38;1.52;;;10.00;99.90;;;;;;4978732;28;20427;-73
2022/09/18 04:26:11;;;;;;;11.48;1.80;;;10.00;99.90;;;;;;4946936;28;209570;-73
2022/09/18 04:28:38;;;;;;;13.02;1.67;;;10.00;99.90;;;;;;4979326;28;20073;-74
2022/09/18 04:31:04;;;;;;;10.63;1.35;;;10.00;99.90;;;;;;4936172;28;188006;-74
2022/09/18 04:33:30;;;;;;;10.43;1.30;;;10.00;99.90;;;;;;4976417;28;20069;-73
2022/09/18 04:35:56;;;;;;;11.10;1.48;;;10.00;99.90;;;;;;4937516;28;210015;-73
2022/09/18 04:38:26;;;;;;;11.30;1.40;;;10.00;99.90;;;;;;4980483;28;20050;-73
2022/09/18 04:40:55;;;;;;;11.63;1.35;;;10.00;99.90;;;;;;4931841;28;213182;-73
2022/09/18 04:43:21;;;;;;;10.80;1.83;;;10.00;99.90;;;;;;4974986;28;20073;-74
2022/09/18 04:45:48;;;;;;;10.82;1.40;;;10.00;99.90;;;;;;4943773;28;205622;-72
2022/09/18 04:48:16;;;;;;;13.43;1.40;;;10.00;99.90;;;;;;4986686;28;20055;-73
2022/09/18 04:50:44;;;;;;;11.35;1.30;;;10.00;99.90;;;;;;4942409;28;210598;-73
2022/09/18 04:53:10;;;;;;;12.80;1.70;;;10.00;99.90;;;;;;4985404;28;20070;-74
2022/09/18 04:55:37;;;;;;;11.38;1.30;;;10.10;99.90;;;;;;4947377;28;206456;-74
2022/09/18 04:58:03;;;;;;;15.73;1.60;;;10.10;99.90;;;;;;4997382;28;20050;-74
2022/09/18 05:00:29;;;;;;;14.27;1.60;;;10.10;99.90;;;;;;4938474;28;222612;-74
2022/09/18 05:02:56;;;;;;;12.70;1.48;;;10.10;99.90;;;;;;4976364;28;20058;-74
2022/09/18 05:05:22;;;;;;;14.65;1.55;;;10.10;99.90;;;;;;4940240;28;208492;-75
2022/09/18 05:07:48;;;;;;;9.75;1.67;;;10.20;99.90;;;;;;4988006;28;20054;-75
2022/09/18 05:10:14;;;;;;;14.32;1.65;;;10.20;99.90;;;;;;4941558;28;218041;-75
2022/09/18 05:12:43;;;;;;;12.32;1.60;;;10.20;99.90;;;;;;4970907;28;20062;-75
2022/09/18 05:15:10;;;;;;;11.07;1.40;;;10.30;99.90;;;;;;4936288;28;212620;-75
2022/09/18 05:17:40;;;;;;;13.68;1.77;;;10.30;99.90;;;;;;4972047;28;20519;-75
2022/09/18 05:20:07;;;;;;;16.15;1.83;;;10.40;99.90;;;;;;4939101;28;211734;-74
2022/09/18 05:22:34;;;;;;;14.55;1.42;;;10.40;99.90;;;;;;4981240;28;20405;-74
2022/09/18 05:25:00;;;;;;;11.10;1.50;;;10.40;99.90;;;;;;4953307;28;208629;-73
2022/09/18 05:27:27;;;;;;;12.85;1.52;;;10.40;99.90;;;;;;4983647;28;20070;-73
2022/09/18 05:29:53;;;;;;;14.13;1.60;;;10.40;99.90;;;;;;4997896;28;20047;-73
2022/09/18 05:32:19;;;;;;;11.93;1.20;;;10.40;99.90;;;;;;4943318;28;209364;-75
2022/09/18 05:34:48;;;;;;;8.90;1.17;;;10.40;99.90;;;;;;4985877;28;20054;-73
2022/09/18 05:37:16;;;;;;;10.32;1.38;;;10.40;99.90;;;;;;4916609;28;206208;-74
2022/09/18 05:39:42;;;;;;;8.23;1.20;;;10.40;99.90;;;;;;4967148;28;20050;-74
2022/09/18 05:42:09;;;;;;;7.03;1.10;;;10.30;99.90;;;;;;4928377;28;208263;-74
2022/09/18 05:44:35;;;;;;;12.50;1.55;;;10.30;99.90;;;;;;4985581;28;20061;-75
2022/09/18 05:47:01;;;;;;;10.40;1.02;;;10.30;99.90;;;;;;4929687;28;156136;-75
2022/09/18 05:49:27;;;;;;;9.30;1.20;;;10.30;99.90;;;;;;4983892;28;20070;-74
2022/09/18 05:51:57;;;;;;;8.95;1.20;;;10.30;99.90;;;;;;4930995;28;205066;-74
2022/09/18 05:54:23;;;;;;;11.82;1.55;;;10.30;99.90;;;;;;4968179;28;20448;-74
2022/09/18 05:56:49;;;;;;;7.50;1.13;;;10.30;99.90;;;;;;4928749;28;229423;-73
2022/09/18 05:59:15;;;;;;;12.18;1.30;;;10.30;99.90;;;;;;4984505;28;20061;-73
2022/09/18 06:01:42;;;;;;;11.30;1.30;;;10.30;99.90;;;;;;4942859;28;208132;-73
2022/09/18 06:04:08;;;;;;;7.85;1.40;;;10.30;99.90;;;;;;4977135;28;20066;-73
2022/09/18 06:06:35;;;;;;;12.65;1.30;;;10.30;99.90;;;;;;4937856;28;175887;-73
2022/09/18 06:09:02;;;;;;;9.75;1.35;;;10.30;99.90;;;;;;4983483;28;20050;-73
2022/09/18 06:11:28;;;;;;;12.02;1.60;;;10.30;99.90;;;;;;4940006;28;218567;-74
2022/09/18 06:13:54;;;;;;;12.40;1.48;;;10.30;99.90;;;;;;4974922;28;20054;-73
2022/09/18 06:16:20;;;;;;;8.85;1.30;;;10.30;99.90;;;;;;4951378;28;205815;-74
2022/09/18 06:18:46;;;;;;;9.13;1.60;;;10.40;99.90;;;;;;4982239;28;20053;-74
2022/09/18 06:21:13;;;;;;;9.70;1.23;;;10.30;99.90;;;;;;4944727;28;204460;-75
2022/09/18 06:23:40;;;;;;;10.85;1.23;;;10.40;99.90;;;;;;4982357;28;20063;-74
2022/09/18 06:26:06;;;;;;;11.93;1.40;;;10.40;99.90;;;;;;4939714;28;224088;-74
2022/09/18 06:28:53;;;;;;;11.80;1.30;;;10.40;99.90;;;;;;4988941;28;20062;-75
2022/09/18 06:31:22;;;;;;;7.95;1.10;;;10.40;99.90;;;;;;4962852;28;209608;-75
2022/09/18 06:33:48;;;;;;;11.73;1.27;;;10.40;99.90;;;;;;4989594;28;20038;-75
2022/09/18 06:36:15;;;;;;;10.32;1.30;;;10.40;99.90;;;;;;4940100;28;210807;-74
2022/09/18 06:38:41;;;;;;;8.63;1.13;;;10.40;99.90;;;;;;4982051;28;20062;-74
2022/09/18 06:41:10;;;;;;;8.73;1.15;;;10.40;99.90;;;;;;4936800;28;236089;-74
2022/09/18 06:43:36;;;;;;;8.82;1.27;;;10.40;99.90;;;;;;4974361;28;20080;-74
2022/09/18 06:46:03;;;;;;;11.90;1.30;;;10.40;99.90;;;;;;4945225;28;206643;-75
2022/09/18 06:48:34;;;;;;;10.02;1.38;;;10.40;99.90;;;;;;4984127;28;20070;-75
2022/09/18 06:51:01;;;;;;;13.23;1.90;;;10.40;99.90;;;;;;4944768;28;209025;-73
2022/09/18 06:53:30;;;;;;;11.88;1.30;;;10.50;99.90;;;;;;4996423;28;20070;-73
2022/09/18 06:56:02;;;;;;;11.05;1.45;;;10.50;99.90;;;;;;4933626;28;206471;-74
2022/09/18 06:58:28;;;;;;;11.27;1.52;;;10.50;99.90;;;;;;4996285;28;20030;-75
2022/09/18 07:00:58;;;;;;;10.95;1.20;;;10.50;99.90;;;;;;4947584;28;132090;-74
2022/09/18 07:03:24;;;;;;;10.50;1.40;;;10.60;99.90;;;;;;4965603;28;20499;-73
2022/09/18 07:05:50;;;;;;;10.43;1.25;;;10.60;99.90;;;;;;4947555;28;214385;-74
2022/09/18 07:08:16;;;;;;;8.40;1.30;;;10.60;99.90;;;;;;4983901;28;20064;-74
2022/09/18 07:10:43;;;;;;;9.07;1.10;;;10.60;99.90;;;;;;4947100;28;209769;-74
2022/09/18 07:13:09;;;;;;;12.48;1.50;;;10.60;99.90;;;;;;4976029;28;20062;-75
2022/09/18 07:15:35;;;;;;;11.60;1.25;;;10.60;99.90;;;;;;4940791;28;195887;-74
2022/09/18 07:18:04;;;;;;;12.10;1.48;;;10.60;99.90;;;;;;4986772;28;20058;-74
2022/09/18 07:20:30;;;;;;;16.60;1.63;;;10.70;99.90;;;;;;4952131;28;235622;-74
2022/09/18 07:22:59;;;;;;;7.85;1.20;;;10.70;99.90;;;;;;4986668;28;21078;-74
2022/09/18 07:25:28;;;;;;;10.90;1.30;;;10.70;99.90;;;;;;4934708;28;209256;-75
2022/09/18 07:27:54;;;;;;;13.90;1.52;;;10.80;99.90;;;;;;4973646;28;20504;-74
2022/09/18 07:30:20;;;;;;;15.88;1.65;;;10.70;99.90;;;;;;4943840;28;207739;-74
2022/09/18 07:32:47;;;;;;;11.93;1.50;;;10.70;99.90;;;;;;4996738;28;20520;-75
2022/09/18 07:35:13;;;;;;;8.37;1.00;;;10.80;99.90;;;;;;4944528;28;243450;-74
2022/09/18 07:37:40;;;;;;;12.05;1.35;;;10.80;99.90;;;;;;4983777;28;20508;-74
2022/09/18 07:40:07;;;;;;;13.95;1.55;;;10.80;99.90;;;;;;4939480;28;210463;-74
2022/09/18 07:42:35;;;;;;;12.20;1.42;;;10.80;99.90;;;;;;4977972;28;20065;-74
2022/09/18 07:45:01;;;;;;;12.43;1.50;;;10.80;99.90;;;;;;4924041;28;212584;-74
2022/09/18 07:47:27;;;;;;;12.98;1.80;;;10.80;99.90;;;;;;4972041;28;20055;-70
2022/09/18 07:49:53;;;;;;;15.73;1.58;;;10.80;99.90;;;;;;4997395;28;20097;-75
2022/09/18 07:52:20;;;;;;;9.95;1.50;;;10.80;99.90;;;;;;4938082;28;184162;-75
2022/09/18 07:54:46;;;;;;;10.32;1.40;;;10.70;99.90;;;;;;4990155;28;20134;-73
2022/09/18 07:57:12;;;;;;;14.55;1.50;;;10.70;99.90;;;;;;4960478;28;217298;-73
2022/09/18 07:59:38;;;;;;;11.05;1.50;;;10.60;99.90;;;;;;4996557;28;20415;-74
2022/09/18 08:02:05;;;;;;;11.95;1.73;;;10.60;99.90;;;;;;4943687;28;217415;-74
2022/09/18 08:04:31;;;;;;;12.75;1.45;;;10.60;99.90;;;;;;4993242;28;20057;-73
2022/09/18 08:07:02;;;;;;;10.73;1.33;;;10.60;99.90;;;;;;4942728;28;222352;-73
2022/09/18 08:09:29;;;;;;;12.23;1.60;;;10.60;99.90;;;;;;4985462;28;20058;-74
2022/09/18 08:11:55;;;;;;;12.10;1.50;;;10.70;99.90;;;;;;4937579;28;213016;-75
2022/09/18 08:14:21;;;;;;;10.70;1.50;;;10.70;99.90;;;;;;4984301;28;20221;-74
2022/09/18 08:16:47;;;;;;;11.85;1.63;;;10.80;99.90;;;;;;4931279;28;212274;-74
2022/09/18 08:19:13;;;;;;;11.38;1.30;;;10.80;99.90;;;;;;4983578;28;20514;-76
2022/09/18 08:21:39;;;;;;;9.93;1.33;;;10.80;99.90;;;;;;4943423;28;210865;-74
2022/09/18 08:24:05;;;;;;;10.88;1.40;;;10.90;99.90;;;;;;4985819;28;20054;-74
2022/09/18 08:26:34;;;;;;;14.23;1.15;;;10.90;99.90;;;;;;4927505;28;233974;-74
2022/09/18 08:29:00;;;;;;;8.45;1.02;;;10.90;99.90;;;;;;4988706;28;20054;-74
2022/09/18 08:31:26;;;;;;;10.25;1.50;;;11.00;99.90;;;;;;4953045;28;209825;-74
2022/09/18 08:33:54;;;;;;;11.70;1.58;;;11.00;99.90;;;;;;4991091;28;20054;-75
2022/09/18 08:36:20;;;;;;;10.73;1.50;;;10.90;99.90;;;;;;4937725;28;213710;-73
2022/09/18 08:38:46;;;;;;;7.63;1.20;;;10.90;99.90;;;;;;4982299;28;20055;-74
2022/09/18 08:41:35;;;;;;;9.80;1.25;;;10.90;99.90;;;;;;4948862;28;211824;-74
2022/09/18 08:44:07;;;;;;;12.88;1.50;;;11.00;99.90;;;;;;4983176;28;20076;-74
2022/09/18 08:46:48;;;;;;;9.20;1.30;;;11.00;99.90;;;;;;4954334;28;213731;-74
2022/09/18 08:49:21;;;;;;;;;;;10.90;99.90;;;;;;4981997;28;20050;-74
2022/09/18 08:52:16;;;;;;;12.50;1.23;;;10.90;99.90;;;;;;4933231;28;216567;-75
2022/09/18 08:55:00;;;;;;;10.10;1.45;;;10.90;99.90;;;;;;4979918;28;20389;-73
2022/09/18 08:57:40;;;;;;;12.55;1.50;;;10.90;99.90;;;;;;4923316;28;179539;-72
2022/09/18 09:00:16;;;;;;;15.07;1.60;;;10.90;99.90;;;;;;4934252;28;212083;-72
2022/09/18 09:02:46;;;;;;;12.60;1.90;;;10.90;99.90;;;;;;4993174;28;20345;-72
2022/09/18 09:05:19;;;;;;;13.07;1.65;;;10.90;99.90;;;;;;4921016;28;212530;-72
2022/09/18 09:08:18;;;;;;;11.95;1.42;;;10.90;99.90;;;;;;4970035;28;20042;-73
2022/09/18 09:10:54;;;;;;;10.13;1.38;;;11.00;99.90;;;;;;4962320;28;207395;-72
2022/09/18 09:13:51;;;;;;;11.93;1.40;;;11.00;99.90;;;;;;4971703;28;20504;-73
2022/09/18 09:16:31;;;;;;;7.75;1.23;;;11.00;99.90;;;;;;4922026;28;210067;-73
2022/09/18 09:19:06;;;;;;;10.38;1.52;;;11.10;99.90;;;;;;4979826;28;20061;-73
2022/09/18 09:21:50;;;;;;;12.52;1.38;;;11.10;99.90;;;;;;4939530;28;207921;-73
2022/09/18 09:24:31;;;;;;;11.40;1.40;;;11.10;99.90;;;;;;4981517;28;20053;-73
2022/09/18 09:27:02;;;;;;;11.52;1.60;;;11.10;99.90;;;;;;4946219;28;209719;-73
2022/09/18 09:29:36;;;;;;;;;;;11.20;99.90;;;;;;4991605;28;20046;-74
2022/09/18 09:32:18;;;;;;;11.10;1.50;;;11.20;99.90;;;;;;4952057;28;154939;-73
2022/09/18 09:35:11;;;;;;;5.82;1.10;;;11.20;99.90;;;;;;4978728;28;20134;-73
2022/09/18 09:37:44;;;;;;;12.23;1.45;;;11.10;99.90;;;;;;4866179;28;338402;-75
2022/09/18 09:40:13;;;;;;;14.00;1.77;;;11.10;99.90;;;;;;4906117;28;180076;-73
2022/09/18 09:42:46;;;;;;;16.70;1.50;;;11.00;99.90;;;;;;4968411;28;20706;-72
2022/09/18 09:45:17;;;;;;;12.02;1.40;;;11.00;99.90;;;;;;4920676;28;205405;-72
2022/09/18 09:48:01;;;;;;;10.73;1.35;;;11.10;99.90;;;;;;4964801;28;20073;-73
2022/09/18 09:50:59;;;;;;;10.98;1.50;;;11.00;99.90;;;;;;4932875;28;177048;-72
2022/09/18 09:53:26;;;;;;;10.50;1.42;;;11.00;99.90;;;;;;4895696;29;20059;-73
2022/09/18 09:55:52;;;;;;;8.95;1.20;;;11.00;99.90;;;;;;4871368;29;130159;-72
2022/09/18 09:58:43;;;;;;;9.73;1.10;;;11.00;99.90;;;;;;4921135;29;20897;-73
2022/09/18 10:01:21;;;;;;;13.07;1.43;;;11.00;99.90;;;;;;4885199;28;239775;-71
2022/09/18 10:04:18;;;;;;;10.65;1.35;;;10.90;99.90;;;;;;4949140;28;20067;-73
2022/09/18 10:07:06;;;;;;;10.40;1.38;;;11.00;99.90;;;;;;4898287;28;206923;-73
2022/09/18 10:09:45;;;;;;;11.35;1.38;;;11.10;99.90;;;;;;4930406;28;20044;-73
2022/09/18 10:12:29;;;;;;;14.70;1.48;;;11.10;99.90;;;;;;4847184;29;208239;-72
2022/09/18 10:15:20;;;;;;;8.70;1.30;;;11.10;99.90;;;;;;4862481;29;312191;-72
2022/09/18 10:17:51;;;;;;;11.07;1.52;;;11.10;99.90;;;;;;4852418;29;205035;-73
2022/09/18 10:20:25;;;;;;;9.52;1.42;;;11.10;99.90;;;;;;4860197;29;174839;-73
2022/09/18 10:22:51;;;;;;;10.70;1.17;;;11.20;99.90;;;;;;4888581;29;20063;-72
2022/09/18 10:25:38;;;;;;;11.63;1.50;;;11.20;99.90;;;;;;4836849;29;236703;-72
2022/09/18 10:28:04;;;;;;;13.38;1.30;;;11.30;99.90;;;;;;4870138;29;20063;-73
2022/09/18 10:30:31;;;;;;;15.18;1.75;;;11.30;99.90;;;;;;4881066;28;211890;-73
2022/09/18 10:32:58;;;;;;;11.10;1.58;;;11.30;99.90;;;;;;4943493;28;20051;-72
2022/09/18 10:35:43;;;;;;;9.40;1.35;;;11.30;99.90;;;;;;4917269;28;216127;-73
2022/09/18 10:38:28;;;;;;;10.15;1.27;;;11.40;99.90;;;;;;4975030;28;20051;-73
2022/09/18 10:40:55;;;;;;;15.30;1.60;;;11.50;99.90;;;;;;4932706;28;207119;-72
2022/09/18 10:43:22;;;;;;;11.25;1.30;;;11.60;99.90;;;;;;4953465;28;20054;-72
2022/09/18 10:45:53;;;;;;;11.95;1.73;;;11.60;99.90;;;;;;4920951;28;213712;-72
2022/09/18 10:48:22;;;;;;;;;;;11.70;99.90;;;;;;4960526;28;20047;-71
2022/09/18 10:50:56;;;;;;;13.68;1.75;;;11.70;99.90;;;;;;4912245;28;217371;-71
2022/09/18 10:53:30;;;;;;;11.18;1.70;;;11.70;99.90;;;;;;4970699;28;20051;-71
2022/09/18 10:56:13;;;;;;;8.50;1.25;;;11.70;99.90;;;;;;4908949;28;233865;-71
2022/09/18 10:58:40;;;;;;;9.85;1.48;;;11.80;99.90;;;;;;4959562;28;20058;-71
2022/09/18 11:01:08;;;;;;;11.38;1.63;;;11.70;99.90;;;;;;4920330;28;210751;-72
2022/09/18 11:03:46;;;;;;;13.65;1.65;;;11.80;99.90;;;;;;4963521;28;20452;-72
2022/09/18 11:06:24;;;;;;;11.75;1.70;;;11.80;99.90;;;;;;4909240;28;205744;-71
2022/09/18 11:09:00;;;;;;;11.55;1.67;;;11.90;99.90;;;;;;4961495;28;20043;-71
2022/09/18 11:11:28;;;;;;;11.40;1.40;;;11.90;99.90;;;;;;4939643;28;161399;-71
2022/09/18 11:13:58;;;;;;;13.77;1.52;;;12.10;99.90;;;;;;4985976;28;20058;-71
2022/09/18 11:16:28;;;;;;;13.70;1.88;;;12.20;99.90;;;;;;4937050;28;207009;-72
2022/09/18 11:19:06;;;;;;;12.57;1.70;;;12.20;99.90;;;;;;4984015;28;20046;-71
2022/09/18 11:21:32;;;;;;;14.77;1.85;;;12.20;99.90;;;;;;4946465;28;206651;-71
2022/09/18 11:24:05;;;;;;;11.43;1.90;;;12.30;99.90;;;;;;4990646;28;20062;-71
2022/09/18 11:26:32;;;;;;;13.57;1.60;;;12.30;99.90;;;;;;4945139;28;209544;-71
2022/09/18 11:29:04;;;;;;;9.63;1.50;;;12.30;99.90;;;;;;4993008;28;20050;-72
2022/09/18 11:32:03;;;;;;;12.25;1.52;;;12.40;99.90;;;;;;4956740;28;212905;-71
2022/09/18 11:34:34;;;;;;;14.25;1.77;;;12.40;99.90;;;;;;4927071;29;20085;-71
2022/09/18 11:37:06;;;;;;;14.98;1.77;;;12.50;99.90;;;;;;4865163;29;175075;-71
2022/09/18 11:39:36;;;;;;;13.45;2.13;;;12.50;99.90;;;;;;4903033;29;20051;-71
2022/09/18 11:42:11;;;;;;;14.55;1.83;;;12.60;99.90;;;;;;4880295;28;208668;-72
2022/09/18 11:44:38;;;;;;;13.77;2.00;;;12.60;99.90;;;;;;4925332;29;20051;-71
2022/09/18 11:47:14;;;;;;;13.88;1.92;;;12.80;99.90;;;;;;4881374;29;206894;-71
2022/09/18 11:49:49;;;;;;;12.82;1.67;;;12.80;99.90;;;;;;4914913;29;20060;-72
2022/09/18 11:52:19;;;;;;;15.38;1.52;;;12.80;99.90;;;;;;4878680;29;207059;-71
2022/09/18 11:55:27;;;;;;;17.08;1.95;;;13.00;99.90;;;;;;4928632;28;20075;-71
2022/09/18 11:58:11;;;;;;;15.48;1.73;;;13.10;99.90;;;;;;4887121;28;116310;-71
2022/09/18 12:00:51;;;;;;;13.63;1.50;;;13.30;99.90;;;;;;4878656;28;209746;-71
2022/09/18 12:03:28;;;;;;;13.27;1.50;;;13.30;99.90;;;;;;4897193;29;20043;-71
2022/09/18 12:06:05;;;;;;;15.18;1.92;;;13.40;99.90;;;;;;4863690;29;207235;-71
2022/09/18 12:09:13;;;;;;;12.27;1.70;;;13.30;99.90;;;;;;4924939;28;20493;-72
2022/09/18 12:11:44;;;;;;;14.88;2.00;;;13.30;99.90;;;;;;4835959;29;205906;-71
2022/09/18 12:14:17;;;;;;;18.27;1.65;;;13.40;99.90;;;;;;4925367;29;20054;-71
2022/09/18 12:16:51;;;;;;;14.82;1.88;;;13.50;99.90;;;;;;4880114;29;214985;-71
2022/09/18 12:19:25;;;;;;;10.38;1.70;;;13.60;99.90;;;;;;4915424;29;20071;-71
2022/09/18 12:22:04;;;;;;;13.63;1.88;;;13.70;99.90;;;;;;4858004;29;213066;-71
2022/09/18 12:24:30;;;;;;;15.07;1.70;;;13.70;99.90;;;;;;4922690;29;20059;-70
2022/09/18 12:27:26;;;;;;;12.93;1.92;;;13.60;99.90;;;;;;4885121;28;167932;-70
2022/09/18 12:30:03;;;;;;;14.73;1.60;;;13.60;99.90;;;;;;4904840;29;20421;-69
2022/09/18 12:33:01;;;;;;;11.90;1.80;;;13.70;99.90;;;;;;4862170;29;206435;-70
2022/09/18 12:35:45;;;;;;;15.52;1.80;;;13.60;99.90;;;;;;4861317;28;205721;-71
2022/09/18 12:38:11;;;;;;;11.60;2.25;;;13.60;99.90;;;;;;4897837;29;20081;-71
2022/09/18 12:40:40;;;;;;;15.60;1.80;;;13.70;99.90;;;;;;4868066;29;209540;-70
2022/09/18 12:43:24;;;;;;;12.60;1.75;;;13.70;99.90;;;;;;4908397;29;20055;-70
2022/09/18 12:46:05;;;;;;;13.02;1.60;;;13.60;99.90;;;;;;4867892;29;206993;-70
2022/09/18 12:48:39;;;;;;;10.43;1.65;;;13.60;99.90;;;;;;4901180;29;20059;-71
2022/09/18 12:51:27;;;;;;;12.40;1.67;;;13.60;99.90;;;;;;4858284;29;214969;-71
2022/09/18 12:54:19;;;;;;;14.75;1.85;;;13.50;99.90;;;;;;4899034;29;20074;-69
2022/09/18 12:57:15;;;;;;;12.70;1.67;;;13.50;99.90;;;;;;4877804;28;209720;-70
2022/09/18 12:59:44;;;;;;;11.38;1.98;;;13.50;99.90;;;;;;4907696;29;20052;-69
2022/09/18 13:02:38;;;;;;;12.90;1.67;;;13.50;99.90;;;;;;4840316;29;206254;-70